Time;durP1;ratioP1;P1;durP2;ratioP2;P2;SDS_P1;SDS_P2;PMS_P1;PMS_P2;Temp;Humidity;BMP_temperature;BMP_pressure;BME280_temperature;BME280_humidity;BME280_pressure;Samples;Min_cycle;Max_cycle;Signal;HPM_P1;HPM_P2
2021/12/10 00:00:33;;;;;;;5.97;3.30;;;;;;;4.28;84.08;98093.59;6161685;23;20084;-77
2021/12/10 00:02:59;;;;;;;5.30;3.17;;;;;;;4.34;83.76;98085.06;6162172;23;20005;-76
2021/12/10 00:05:29;;;;;;;4.72;3.22;;;;;;;4.34;84.41;98085.06;6161481;23;20016;-76
2021/12/10 00:07:55;;;;;;;6.68;3.10;;;;;;;4.36;83.68;98077.00;6162901;23;20634;-78
2021/12/10 00:10:25;;;;;;;4.53;3.05;;;;;;;4.37;83.46;98073.38;6161449;23;19997;-78
2021/12/10 00:12:51;;;;;;;4.82;2.80;;;;;;;4.36;83.39;98059.31;6163239;23;20024;-75
2021/12/10 00:15:22;;;;;;;5.43;3.05;;;;;;;4.37;82.88;98055.69;6161256;23;20013;-76
2021/12/10 00:17:49;;;;;;;3.97;2.50;;;;;;;4.37;82.99;98045.09;6136966;23;20024;-77
2021/12/10 00:20:16;;;;;;;7.75;3.30;;;;;;;4.33;82.93;98037.59;6162352;23;20006;-77
2021/12/10 00:22:53;;;;;;;4.90;2.60;;;;;;;4.35;83.10;98035.63;6137740;23;20005;-77
2021/12/10 00:25:22;;;;;;;4.70;2.70;;;;;;;4.38;82.63;98027.41;6137630;23;20006;-76
2021/12/10 00:27:49;;;;;;;6.70;2.72;;;;;;;4.37;82.81;98023.94;6162617;23;20033;-77
2021/12/10 00:30:25;;;;;;;5.00;2.50;;;;;;;4.34;82.65;98002.22;6137507;23;20017;-77
2021/12/10 00:33:03;;;;;;;4.68;2.53;;;;;;;4.30;82.63;97999.03;6162655;23;20005;-78
2021/12/10 00:35:30;;;;;;;4.07;2.50;;;;;;;4.27;82.73;97990.56;6163667;23;20002;-76
2021/12/10 00:37:56;;;;;;;6.10;2.17;;;;;;;4.27;82.60;97983.47;6161809;23;20000;-78
2021/12/10 00:40:24;;;;;;;6.43;2.13;;;;;;;4.27;82.51;97975.53;6161525;23;20010;-77
2021/12/10 00:42:49;;;;;;;2.75;1.70;;;;;;;4.27;82.20;97978.19;6136697;23;20349;-76
2021/12/10 00:45:16;;;;;;;4.10;1.90;;;;;;;4.31;82.36;97965.47;6161849;23;20036;-76
2021/12/10 00:47:42;;;;;;;4.18;1.92;;;;;;;4.34;81.98;97957.25;6162018;23;19998;-76
2021/12/10 00:50:11;;;;;;;4.50;1.65;;;;;;;4.37;81.67;97955.13;6162285;23;20012;-76
2021/12/10 00:52:37;;;;;;;2.90;1.50;;;;;;;4.38;81.69;97948.88;6161824;23;20033;-76
2021/12/10 00:55:04;;;;;;;4.20;1.90;;;;;;;4.36;81.63;97931.47;6161903;23;19998;-76
2021/12/10 00:57:30;;;;;;;5.75;1.63;;;;;;;4.35;81.32;97935.94;6162105;23;20078;-76
2021/12/10 00:59:55;;;;;;;6.07;1.70;;;;;;;4.39;81.76;97928.53;6162077;23;20057;-76
2021/12/10 01:02:23;;;;;;;2.63;1.55;;;;;;;4.41;81.45;97927.41;6162208;23;19998;-77
2021/12/10 01:04:52;;;;;;;3.00;1.30;;;;;;;4.34;81.35;97918.41;6161601;23;20788;-78
2021/12/10 01:07:22;;;;;;;4.25;1.50;;;;;;;4.37;80.83;97909.34;6162217;23;20037;-78
2021/12/10 01:09:50;;;;;;;2.15;1.50;;;;;;;4.33;80.71;97892.09;6161895;23;20827;-76
2021/12/10 01:12:30;;;;;;;4.03;1.20;;;;;;;4.32;80.55;97880.69;6161766;23;19998;-76
2021/12/10 01:26:24;;;;;;;2.53;1.23;;;;;;;4.32;80.46;97850.75;6161501;23;20016;-77
2021/12/10 01:28:57;;;;;;;3.42;1.33;;;;;;;4.36;80.46;97838.88;6161836;23;20012;-77
2021/12/10 01:31:22;;;;;;;5.20;1.20;;;;;;;4.32;80.23;97834.88;6161601;23;20080;-78
2021/12/10 01:33:50;;;;;;;4.22;1.20;;;;;;;4.35;80.38;97829.28;6137157;23;20002;-76
2021/12/10 01:36:16;;;;;;;4.40;1.17;;;;;;;4.31;80.57;97825.28;6162892;23;20006;-76
2021/12/10 01:38:44;;;;;;;4.57;1.20;;;;;;;4.31;79.92;97827.91;6162089;23;20008;-76
2021/12/10 01:41:13;;;;;;;4.00;1.10;;;;;;;4.25;80.39;97813.47;6162761;23;21177;-77
2021/12/10 01:43:40;;;;;;;3.35;1.42;;;;;;;4.28;80.59;97807.06;6164592;23;20005;-77
2021/12/10 01:46:12;;;;;;;6.28;1.20;;;;;;;4.27;80.68;97797.47;6164231;23;19998;-76
2021/12/10 01:48:44;;;;;;;3.22;1.27;;;;;;;4.28;80.40;97796.47;6164003;23;20001;-76
2021/12/10 01:51:12;;;;;;;3.70;1.20;;;;;;;4.24;80.83;97785.34;6163943;23;20009;-76
2021/12/10 01:53:39;;;;;;;3.63;1.10;;;;;;;4.22;80.20;97779.38;6162509;23;20005;-76
2021/12/10 01:56:09;;;;;;;2.92;1.10;;;;;;;4.22;80.94;97773.25;6164162;23;20589;-77
2021/12/10 01:58:35;;;;;;;2.85;1.00;;;;;;;4.15;80.53;97769.56;6163497;23;20005;-76
2021/12/10 02:01:12;;;;;;;3.53;1.00;;;;;;;4.18;81.10;97772.72;6163040;23;20129;-77
2021/12/10 02:03:38;;;;;;;4.20;1.20;;;;;;;4.21;80.78;97768.94;6164545;23;20010;-77
2021/12/10 02:06:05;;;;;;;2.67;1.33;;;;;;;4.18;80.84;97761.31;6162392;23;20035;-75
2021/12/10 02:08:30;;;;;;;4.75;1.30;;;;;;;4.15;80.91;97756.34;6164232;23;20025;-77
2021/12/10 02:10:56;;;;;;;5.18;1.10;;;;;;;4.20;81.11;97762.00;6164507;23;20001;-76
2021/12/10 02:13:21;;;;;;;3.15;1.20;;;;;;;4.26;81.11;97750.84;6162752;23;20361;-77
2021/12/10 02:15:47;;;;;;;3.97;1.10;;;;;;;4.23;80.95;97748.47;6162415;23;20069;-77
2021/12/10 02:18:12;;;;;;;4.15;1.23;;;;;;;4.23;81.17;97744.00;6187093;23;20056;-77
2021/12/10 02:21:01;;;;;;;3.88;1.13;;;;;;;4.24;80.66;97731.59;6163520;23;20008;-77
2021/12/10 02:23:28;;;;;;;4.63;0.95;;;;;;;4.26;81.09;97727.03;6156015;23;20005;-76
2021/12/10 02:25:55;;;;;;;2.80;1.15;;;;;;;4.24;80.63;97731.59;6163606;23;20008;-77
2021/12/10 02:28:21;;;;;;;4.35;1.27;;;;;;;4.21;80.65;97724.81;6163390;23;20008;-77
2021/12/10 02:30:48;;;;;;;4.13;1.00;;;;;;;4.20;80.94;97715.22;6138980;23;20025;-77
2021/12/10 02:33:14;;;;;;;3.95;1.00;;;;;;;4.24;80.59;97713.94;6164659;23;20767;-77
2021/12/10 02:35:39;;;;;;;2.72;0.90;;;;;;;4.27;80.59;97705.72;6162790;23;20008;-76
2021/12/10 02:38:06;;;;;;;1.73;0.90;;;;;;;4.21;81.22;97698.38;6163198;23;19997;-77
2021/12/10 02:40:34;;;;;;;2.08;0.90;;;;;;;4.16;81.06;97692.72;6163021;23;20006;-76
2021/12/10 02:43:05;;;;;;;3.38;1.05;;;;;;;4.18;81.01;97682.81;6163284;23;19998;-77
2021/12/10 02:45:30;;;;;;;5.32;1.45;;;;;;;4.20;80.95;97687.94;6162942;23;19994;-78
2021/12/10 02:47:56;;;;;;;3.28;1.20;;;;;;;4.18;81.09;97688.09;6163897;23;20017;-77
2021/12/10 02:50:24;;;;;;;4.10;1.17;;;;;;;4.22;80.95;97681.50;6161454;23;20084;-77
2021/12/10 02:52:50;;;;;;;1.25;0.85;;;;;;;4.30;81.08;97681.59;6162757;23;20069;-76
2021/12/10 02:55:16;;;;;;;6.32;1.23;;;;;;;4.35;81.17;97679.31;6162763;23;20075;-76
2021/12/10 02:57:44;;;;;;;3.60;1.20;;;;;;;4.35;80.90;97679.31;6163824;23;20064;-78
2021/12/10 03:00:13;;;;;;;3.88;0.93;;;;;;;4.32;80.56;97676.16;6161929;23;20012;-77
2021/12/10 03:02:38;;;;;;;;;;;;;;;4.29;80.66;97671.16;6163271;23;20012;-78
2021/12/10 03:05:05;;;;;;;3.10;0.90;;;;;;;4.33;80.44;97652.19;6187686;23;19936;-78
2021/12/10 03:07:31;;;;;;;3.45;0.85;;;;;;;4.26;80.55;97651.16;6164407;23;20061;-76
2021/12/10 03:09:57;;;;;;;2.53;0.80;;;;;;;4.30;80.53;97641.09;6164352;23;20005;-75
2021/12/10 03:12:22;;;;;;;1.83;0.80;;;;;;;4.26;80.75;97637.91;6163176;23;20014;-77
2021/12/10 03:14:51;;;;;;;4.25;1.02;;;;;;;4.27;80.48;97636.94;6163467;23;20016;-76
2021/12/10 03:17:22;;;;;;;3.33;0.95;;;;;;;4.31;80.38;97630.34;6138495;23;20028;-76
2021/12/10 03:19:48;;;;;;;3.13;1.10;;;;;;;4.28;80.19;97621.91;6138339;23;20002;-79
2021/12/10 03:22:13;;;;;;;3.90;0.90;;;;;;;4.26;80.23;97615.94;6113660;23;20064;-76
2021/12/10 03:24:39;;;;;;;4.22;1.35;;;;;;;4.24;80.47;97615.22;6137723;23;20052;-77
2021/12/10 03:27:07;;;;;;;3.72;0.90;;;;;;;4.23;80.42;97605.63;6138711;23;20013;-76
2021/12/10 03:29:35;;;;;;;5.72;1.13;;;;;;;4.21;80.62;97600.50;6113266;23;20016;-77
2021/12/10 03:32:05;;;;;;;3.95;1.15;;;;;;;4.25;80.48;97601.00;6138344;23;20013;-77
2021/12/10 03:34:30;;;;;;;3.38;1.15;;;;;;;4.25;80.28;97598.38;6163239;23;20029;-76
2021/12/10 03:36:56;;;;;;;3.15;1.00;;;;;;;4.26;80.08;97590.31;6137653;23;20028;-76
2021/12/10 03:39:23;;;;;;;4.32;0.82;;;;;;;4.23;80.54;97589.75;6163817;23;20029;-77
2021/12/10 03:41:49;;;;;;;5.53;1.20;;;;;;;4.28;80.20;97592.81;6162141;23;20001;-77
2021/12/10 03:44:15;;;;;;;5.07;1.08;;;;;;;4.29;79.96;97578.59;6112963;23;19998;-77
2021/12/10 03:46:41;;;;;;;3.03;0.70;;;;;;;4.25;80.10;97575.41;6137145;23;20028;-75
2021/12/10 03:49:07;;;;;;;3.78;1.00;;;;;;;4.24;79.74;97567.63;6137456;23;20025;-76
2021/12/10 03:51:35;;;;;;;4.70;0.90;;;;;;;4.22;80.04;97559.84;6112349;23;20012;-76
2021/12/10 03:54:00;;;;;;;2.80;1.00;;;;;;;4.21;79.85;97557.34;6137405;23;20632;-77
2021/12/10 03:56:28;;;;;;;3.28;0.80;;;;;;;4.23;79.81;97553.56;6112828;23;20005;-76
2021/12/10 03:58:56;;;;;;;3.72;0.80;;;;;;;4.25;79.84;97548.13;6137551;23;20033;-77
2021/12/10 04:01:24;;;;;;;4.78;1.10;;;;;;;4.23;80.31;97537.69;6136918;23;20002;-76
2021/12/10 04:03:52;;;;;;;5.57;1.05;;;;;;;4.25;80.19;97538.38;6136849;23;20001;-77
2021/12/10 04:06:18;;;;;;;2.17;0.90;;;;;;;4.22;80.16;97536.03;6136488;23;20044;-78
2021/12/10 04:08:44;;;;;;;3.40;0.90;;;;;;;4.20;80.44;97534.53;6164079;23;19993;-77
2021/12/10 04:11:10;;;;;;;3.35;0.80;;;;;;;4.23;80.03;97536.88;6138211;23;20381;-77
2021/12/10 04:13:36;;;;;;;3.22;0.82;;;;;;;4.23;80.08;97531.59;6112696;23;20061;-75
2021/12/10 04:16:03;;;;;;;3.90;0.90;;;;;;;4.22;80.43;97533.41;6150396;23;20013;-76
2021/12/10 04:18:29;;;;;;;6.47;0.80;;;;;;;4.21;80.04;97531.75;6161672;23;20609;-76
2021/12/10 04:20:54;;;;;;;3.08;1.00;;;;;;;4.22;80.48;97519.34;6162843;23;20009;-76
2021/12/10 04:23:21;;;;;;;2.47;0.63;;;;;;;4.24;80.12;97520.00;6163149;23;20005;-76
2021/12/10 04:25:46;;;;;;;4.80;1.00;;;;;;;4.26;80.06;97510.13;6161087;23;20005;-76
2021/12/10 04:28:19;;;;;;;6.65;0.77;;;;;;;4.26;79.69;97508.31;6161985;23;20001;-77
2021/12/10 04:30:46;;;;;;;3.80;1.00;;;;;;;4.26;80.19;97505.66;6163700;23;20119;-76
2021/12/10 04:33:15;;;;;;;3.95;1.00;;;;;;;4.29;80.05;97502.72;6162278;23;20001;-76
2021/12/10 04:35:44;;;;;;;6.47;1.02;;;;;;;4.34;79.29;97494.28;6163667;23;20025;-76
2021/12/10 04:38:09;;;;;;;;;;;;;;;4.31;78.99;97491.97;6162846;23;20002;-76
2021/12/10 04:40:35;;;;;;;5.63;0.90;;;;;;;4.29;79.55;97486.84;6186705;23;19952;-78
2021/12/10 04:43:00;;;;;;;4.03;0.90;;;;;;;4.28;79.05;97479.88;6137369;23;20016;-77
2021/12/10 04:45:26;;;;;;;3.35;0.90;;;;;;;4.36;78.82;97464.03;6163499;23;20448;-76
2021/12/10 04:47:51;;;;;;;3.40;1.02;;;;;;;4.36;78.34;97461.41;6162038;23;20002;-76
2021/12/10 04:50:20;;;;;;;3.00;1.00;;;;;;;4.38;77.98;97451.47;6161922;23;19998;-77
2021/12/10 04:52:45;;;;;;;2.83;0.90;;;;;;;4.38;78.20;97448.84;6162173;23;20002;-77
2021/12/10 04:55:13;;;;;;;5.78;1.17;;;;;;;4.43;77.78;97441.25;6161631;23;20005;-77
2021/12/10 04:57:39;;;;;;;3.38;1.00;;;;;;;4.42;78.40;97430.81;6161068;23;20028;-76
2021/12/10 05:00:08;;;;;;;4.80;1.30;;;;;;;4.47;78.17;97438.28;6162015;23;20049;-77
2021/12/10 05:02:35;;;;;;;2.97;1.08;;;;;;;4.46;78.22;97428.69;6160489;23;20012;-77
2021/12/10 05:05:00;;;;;;;5.40;1.52;;;;;;;4.40;78.40;97424.88;6163361;23;20009;-77
2021/12/10 05:07:30;;;;;;;4.38;1.08;;;;;;;4.37;78.25;97418.06;6162105;23;20413;-77
2021/12/10 05:09:56;;;;;;;6.50;1.70;;;;;;;4.35;78.77;97417.41;6163164;23;19997;-78
2021/12/10 05:12:21;;;;;;;3.40;1.08;;;;;;;4.34;78.81;97418.41;6161621;23;20032;-76
2021/12/10 05:14:47;;;;;;;4.78;1.25;;;;;;;4.34;79.04;97413.13;6161299;23;20481;-77
2021/12/10 05:17:12;;;;;;;2.33;1.17;;;;;;;4.34;78.82;97407.00;6136073;23;20057;-77
2021/12/10 05:19:41;;;;;;;4.35;1.10;;;;;;;4.34;79.03;97410.47;6112380;23;20001;-78
2021/12/10 05:22:09;;;;;;;4.95;1.10;;;;;;;4.34;78.50;97393.78;6112096;23;20025;-77
2021/12/10 05:24:35;;;;;;;3.00;0.98;;;;;;;4.31;78.58;97394.91;6112268;23;19993;-76
2021/12/10 05:27:00;;;;;;;3.45;1.00;;;;;;;4.32;78.23;97395.75;6136291;23;20016;-75
2021/12/10 05:29:27;;;;;;;5.63;1.20;;;;;;;4.32;78.03;97388.66;6137032;23;20016;-76
2021/12/10 05:31:55;;;;;;;3.72;1.23;;;;;;;4.30;78.29;97389.78;6162951;23;20005;-77
2021/12/10 05:34:20;;;;;;;2.22;1.05;;;;;;;4.29;78.45;97386.31;6137154;23;20001;-77
2021/12/10 05:36:45;;;;;;;2.70;0.90;;;;;;;4.29;78.57;97385.50;6112203;23;20025;-76
2021/12/10 05:39:12;;;;;;;5.63;1.50;;;;;;;4.28;78.34;97378.56;6136258;23;20507;-77
2021/12/10 05:41:38;;;;;;;5.47;1.30;;;;;;;4.25;79.00;97376.19;6134552;23;20011;-76
2021/12/10 05:44:04;;;;;;;3.90;1.30;;;;;;;4.24;79.31;97374.53;6135660;23;20038;-76
2021/12/10 05:46:31;;;;;;;4.32;1.38;;;;;;;4.24;79.22;97371.91;6136262;23;20017;-75
2021/12/10 05:48:57;;;;;;;4.53;1.45;;;;;;;4.24;79.56;97363.97;6112536;23;19997;-77
2021/12/10 05:51:22;;;;;;;2.85;1.30;;;;;;;4.29;78.67;97357.22;6136545;23;20061;-76
2021/12/10 05:53:48;;;;;;;4.03;1.20;;;;;;;4.27;78.90;97356.56;6136142;23;20009;-75
2021/12/10 05:56:13;;;;;;;5.03;1.40;;;;;;;4.25;78.84;97349.75;6163185;23;20005;-77
2021/12/10 05:58:38;;;;;;;2.08;1.23;;;;;;;4.27;78.93;97350.44;6112423;23;20010;-79
2021/12/10 06:01:09;;;;;;;3.05;1.25;;;;;;;4.25;78.96;97342.63;6137188;23;19997;-76
2021/12/10 06:03:36;;;;;;;4.22;1.25;;;;;;;4.25;79.05;97336.53;6112118;23;20012;-77
2021/12/10 06:06:03;;;;;;;7.43;1.40;;;;;;;4.24;79.27;97341.00;6137405;23;20076;-78
2021/12/10 06:08:28;;;;;;;4.25;1.80;;;;;;;4.28;79.13;97338.88;6137033;23;20028;-76
2021/12/10 06:10:55;;;;;;;4.53;1.40;;;;;;;4.28;78.78;97330.94;6136939;23;20009;-76
2021/12/10 06:13:21;;;;;;;4.88;1.40;;;;;;;4.26;78.47;97331.09;6136708;23;20024;-76
2021/12/10 06:15:46;;;;;;;3.72;1.35;;;;;;;4.25;78.55;97333.88;6122422;23;20017;-77
2021/12/10 06:18:12;;;;;;;4.03;1.42;;;;;;;4.27;79.00;97331.94;6161692;23;20005;-76
2021/12/10 06:20:42;;;;;;;2.38;1.20;;;;;;;4.25;78.52;97321.47;6161226;23;20013;-76
2021/12/10 06:23:08;;;;;;;5.07;1.42;;;;;;;4.26;78.39;97327.63;6136068;23;20005;-77
2021/12/10 06:25:34;;;;;;;3.92;1.13;;;;;;;4.27;78.87;97327.47;6160945;23;20006;-77
2021/12/10 06:28:00;;;;;;;3.88;1.23;;;;;;;4.24;79.05;97333.06;6164841;23;20009;-76
2021/12/10 06:30:30;;;;;;;2.63;1.20;;;;;;;4.27;78.52;97331.94;6161796;23;20456;-77
2021/12/10 06:32:56;;;;;;;3.28;1.13;;;;;;;4.29;78.14;97327.31;6162525;23;20005;-77
2021/12/10 06:35:23;;;;;;;4.70;1.48;;;;;;;4.29;78.87;97324.66;6162196;23;20013;-77
2021/12/10 06:37:49;;;;;;;4.93;1.45;;;;;;;4.27;78.63;97324.00;6162378;23;20611;-77
2021/12/10 06:40:16;;;;;;;4.60;1.42;;;;;;;4.26;79.10;97322.34;6164842;23;20009;-78
2021/12/10 06:42:42;;;;;;;7.00;1.35;;;;;;;4.25;79.34;97318.00;6162899;23;20001;-76
2021/12/10 06:45:11;;;;;;;3.90;1.15;;;;;;;4.25;78.59;97313.56;6162158;23;20099;-77
2021/12/10 06:47:36;;;;;;;19.85;17.08;;;;;;;4.23;79.44;97315.53;6162374;23;20064;-76
2021/12/10 06:50:05;;;;;;;10.48;4.45;;;;;;;4.25;79.05;97316.19;6187329;23;20001;-75
2021/12/10 06:52:30;;;;;;;3.05;1.30;;;;;;;4.27;79.03;97329.28;6164220;23;20028;-78
2021/12/10 06:54:55;;;;;;;4.07;1.23;;;;;;;4.29;79.60;97314.06;6161712;23;20001;-77
2021/12/10 06:57:21;;;;;;;5.88;1.30;;;;;;;4.27;79.92;97314.25;6162405;23;20037;-76
2021/12/10 06:59:46;;;;;;;5.72;1.33;;;;;;;4.27;79.90;97316.06;6162413;23;20002;-78
2021/12/10 07:02:12;;;;;;;4.95;1.40;;;;;;;4.27;79.76;97308.94;6163008;23;20005;-77
2021/12/10 07:04:41;;;;;;;4.20;1.50;;;;;;;4.33;79.33;97313.59;6138390;23;20006;-78
2021/12/10 07:07:08;;;;;;;2.78;1.23;;;;;;;4.33;80.16;97312.75;6162479;23;20679;-79
2021/12/10 07:09:34;;;;;;;4.63;1.20;;;;;;;4.32;80.27;97313.75;6162958;23;20028;-76
2021/12/10 07:12:00;;;;;;;3.42;1.10;;;;;;;4.34;80.10;97314.41;6163013;23;20112;-78
2021/12/10 07:14:25;;;;;;;3.70;1.50;;;;;;;4.35;80.40;97316.06;6163022;23;20352;-79
2021/12/10 07:16:50;;;;;;;5.05;1.70;;;;;;;4.33;80.73;97313.59;6137614;23;20017;-76
2021/12/10 07:19:17;;;;;;;3.63;1.50;;;;;;;4.32;80.78;97309.28;6162990;23;20001;-76
2021/12/10 07:21:44;;;;;;;2.80;1.40;;;;;;;4.28;80.79;97305.31;6164121;23;20020;-77
2021/12/10 07:24:12;;;;;;;5.57;1.25;;;;;;;4.24;81.08;97300.50;6138269;23;20063;-78
2021/12/10 07:26:38;;;;;;;3.13;1.50;;;;;;;4.24;81.58;97301.31;6162678;23;20001;-78
2021/12/10 07:29:05;;;;;;;2.33;1.27;;;;;;;4.22;82.22;97305.13;6164868;23;20010;-77
2021/12/10 07:31:31;;;;;;;6.05;1.58;;;;;;;4.13;82.35;97308.75;6162742;23;20006;-77
2021/12/10 07:33:57;;;;;;;3.10;1.27;;;;;;;4.11;82.87;97299.16;6137657;23;20006;-78
2021/12/10 07:36:24;;;;;;;1.67;1.05;;;;;;;4.10;83.34;97288.75;6162365;23;20008;-77
2021/12/10 07:38:50;;;;;;;2.72;1.27;;;;;;;4.06;83.65;97292.72;6162337;23;20452;-76
2021/12/10 07:41:16;;;;;;;3.90;1.30;;;;;;;4.03;84.27;97282.47;6164309;23;20056;-76
2021/12/10 07:43:41;;;;;;;3.00;1.13;;;;;;;3.99;84.26;97284.59;6162614;23;20033;-78
2021/12/10 07:46:07;;;;;;;2.25;1.27;;;;;;;4.02;84.25;97284.28;6162573;23;20008;-78
2021/12/10 07:48:34;;;;;;;3.15;1.35;;;;;;;4.05;84.61;97281.31;6162735;23;20084;-76
2021/12/10 07:51:06;;;;;;;3.83;1.25;;;;;;;4.06;84.31;97282.13;6161943;23;20032;-77
2021/12/10 07:53:33;;;;;;;2.38;1.20;;;;;;;4.05;84.54;97272.53;6161927;23;20010;-77
2021/12/10 07:56:02;;;;;;;4.07;1.60;;;;;;;4.03;84.52;97278.00;6163573;23;20010;-76
2021/12/10 07:58:30;;;;;;;;;;;;;;;4.05;84.50;97283.94;6164388;23;20092;-77
2021/12/10 08:00:56;;;;;;;;;;;;;;;4.08;84.55;97288.09;6187229;23;20408;-78
2021/12/10 08:03:21;;;;;;;;;;;;;;;4.09;84.63;97287.91;6186825;23;19909;-77
2021/12/10 08:05:47;;;;;;;;;;;;;;;4.08;84.88;97286.25;6187618;23;19904;-77
2021/12/10 08:08:13;;;;;;;;;;;;;;;4.10;84.47;97280.81;6162311;23;19912;-76
2021/12/10 08:10:39;;;;;;;;;;;;;;;4.13;84.84;97285.78;6187502;23;19901;-77
2021/12/10 08:13:04;;;;;;;;;;;;;;;4.13;84.32;97280.47;6186767;23;19915;-77
2021/12/10 08:15:30;;;;;;;;;;;;;;;4.15;84.35;97282.97;6186194;23;19952;-77
2021/12/10 08:17:55;;;;;;;;;;;;;;;4.17;84.17;97283.63;6158472;23;19923;-77
2021/12/10 08:20:22;;;;;;;;;;;;;;;4.17;84.32;97281.81;6158833;23;19909;-76
2021/12/10 08:22:47;;;;;;;;;;;;;;;4.18;83.98;97282.63;6158155;23;19908;-78
2021/12/10 08:25:12;;;;;;;;;;;;;;;4.18;83.98;97277.34;6182644;23;19943;-77
2021/12/10 08:27:38;;;;;;;;;;;;;;;4.18;83.46;97277.34;6157677;23;20072;-76
2021/12/10 08:30:04;;;;;;;;;;;;;;;4.20;83.55;97278.00;6160587;23;19980;-77
2021/12/10 08:32:30;;;;;;;;;;;;;;;4.22;83.74;97273.38;6158667;23;19908;-77
2021/12/10 08:34:55;;;;;;;;;;;;;;;4.23;83.37;97275.03;6183425;23;19965;-76
2021/12/10 08:37:21;;;;;;;;;;;;;;;4.22;83.34;97273.38;6158911;23;19948;-76
2021/12/10 08:39:46;;;;;;;;;;;;;;;4.26;83.57;97272.91;6158849;23;19919;-76
2021/12/10 08:42:12;;;;;;;;;;;;;;;4.27;83.57;97269.28;6158469;23;19943;-78
2021/12/10 08:44:37;;;;;;;;;;;;;;;4.29;83.41;97267.28;6183626;23;19912;-77
2021/12/10 08:47:03;;;;;;;;;;;;;;;4.29;83.45;97274.41;6183786;23;19916;-76
2021/12/10 08:49:28;;;;;;;;;;;;;;;4.29;83.34;97274.41;6158535;23;19908;-76
2021/12/10 08:51:54;;;;;;;;;;;;;;;4.30;83.45;97268.13;6159051;23;19913;-76
2021/12/10 08:54:20;;;;;;;;;;;;;;;4.31;83.53;97272.41;6183391;23;19909;-77
2021/12/10 08:56:46;;;;;;;;;;;;;;;4.31;83.30;97275.88;6183645;23;19908;-78
2021/12/10 08:59:11;;;;;;;;;;;;;;;4.31;83.54;97267.13;6158523;23;19928;-78
2021/12/10 09:01:39;;;;;;;;;;;;;;;4.33;83.49;97267.78;6183987;23;19912;-77
2021/12/10 09:04:06;;;;;;;;;;;;;;;4.32;83.12;97264.31;6158090;23;19904;-76
2021/12/10 09:06:33;;;;;;;;;;;;;;;4.35;83.50;97266.63;6158764;23;19908;-76
2021/12/10 09:08:58;;;;;;;;;;;;;;;4.36;83.17;97265.63;6183342;23;19949;-77
2021/12/10 09:11:24;;;;;;;;;;;;;;;4.36;83.35;97263.00;6158820;23;19909;-76
2021/12/10 09:13:49;;;;;;;;;;;;;;;4.35;83.05;97273.75;6158867;23;19912;-78
2021/12/10 09:16:23;;;;;;;;;;;;;;;4.36;82.96;97265.63;6157289;23;19936;-76
2021/12/10 09:18:49;;;;;;;;;;;;;;;4.35;82.59;97269.28;6182044;23;19943;-75
2021/12/10 09:21:15;;;;;;;;;;;;;;;4.34;82.40;97274.72;6182368;23;19908;-75
2021/12/10 09:23:40;;;;;;;;;;;;;;;4.35;82.45;97274.56;6182308;23;19911;-77
2021/12/10 09:26:07;;;;;;;;;;;;;;;4.40;82.52;97276.72;6182717;23;19915;-76
2021/12/10 09:28:32;;;;;;;;;;;;;;;4.41;82.44;97276.53;6182736;23;19908;-77
2021/12/10 09:30:58;;;;;;;;;;;;;;;4.42;82.50;97280.84;6157792;23;19964;-78
2021/12/10 09:33:24;;;;;;;;;;;;;;;4.43;82.98;97289.59;6181718;23;19995;-78
2021/12/10 09:35:49;;;;;;;;;;;;;;;4.44;82.86;97285.97;6181852;23;19908;-77
2021/12/10 09:38:15;;;;;;;;;;;;;;;4.47;82.59;97282.16;6157662;23;19909;-75
2021/12/10 09:40:42;;;;;;;;;;;;;;;4.46;82.89;97288.44;6182479;23;19920;-77
2021/12/10 09:43:08;;;;;;;;;;;;;;;4.48;83.24;97281.19;6182951;23;19908;-77
2021/12/10 09:45:34;;;;;;;;;;;;;;;4.48;82.57;97289.94;6182862;23;19904;-78
2021/12/10 09:47:59;;;;;;;;;;;;;;;4.49;83.09;97290.75;6182604;23;19927;-77
2021/12/10 09:50:26;;;;;;;;;;;;;;;4.47;83.01;97290.09;6182163;23;20498;-77
2021/12/10 09:52:51;;;;;;;;;;;;;;;4.48;83.62;97287.28;6182023;23;19915;-76
2021/12/10 09:55:17;;;;;;;;;;;;;;;4.49;83.18;97286.31;6159025;23;19913;-77
2021/12/10 09:57:43;;;;;;;;;;;;;;;4.48;83.25;97289.94;6157278;23;19983;-76
2021/12/10 10:00:11;;;;;;;;;;;;;;;4.46;83.87;97297.22;6158739;23;19908;-77
2021/12/10 10:02:37;;;;;;;;;;;;;;;4.40;83.55;97282.84;6159108;23;19908;-77
2021/12/10 10:05:03;;;;;;;;;;;;;;;4.33;83.59;97291.59;6184683;23;19909;-77
2021/12/10 10:07:31;;;;;;;;;;;;;;;4.33;84.27;97289.78;6161842;23;19908;-77
2021/12/10 10:10:03;;;;;;;;;;;;;;;4.30;84.32;97292.75;6160788;23;19909;-78
2021/12/10 10:12:31;;;;;;;;;;;;;;;4.29;84.68;97283.16;6160386;23;19915;-77
2021/12/10 10:14:56;;;;;;;;;;;;;;;4.33;84.62;97284.50;6184868;23;19919;-77
2021/12/10 10:17:22;;;;;;;;;;;;;;;4.33;85.08;97287.13;6185242;23;19905;-77
2021/12/10 10:19:48;;;;;;;;;;;;;;;4.35;85.41;97279.84;6185062;23;19912;-77
2021/12/10 10:22:14;;;;;;;;;;;;;;;4.34;85.15;97280.84;6185153;23;19909;-76
2021/12/10 10:24:40;;;;;;;;;;;;;;;4.33;85.43;97281.84;6184819;23;19961;-77
2021/12/10 10:27:10;;;;;;;;;;;;;;;4.34;85.67;97285.31;6160413;23;20533;-77
2021/12/10 10:29:36;;;;;;;;;;;;;;;4.36;85.75;97272.75;6160503;23;19914;-78
2021/12/10 10:32:09;;;;;;;;;;;;;;;4.36;85.65;97278.88;6185480;23;19908;-78
2021/12/10 10:34:36;;;;;;;;;;;;;;;4.36;85.71;97276.22;6184264;23;20407;-76
2021/12/10 10:37:02;;;;;;;;;;;;;;;4.39;86.34;97280.34;6185294;23;19952;-77
2021/12/10 10:39:33;;;;;;;;;;;;;;;4.36;86.26;97280.69;6160629;23;19911;-77
2021/12/10 10:41:58;;;;;;;;;;;;;;;4.32;86.05;97280.19;6160511;23;19912;-77
2021/12/10 10:44:24;;;;;;;;;;;;;;;4.30;86.43;97287.47;6159263;23;19904;-77
2021/12/10 10:46:50;;;;;;;;;;;;;;;4.30;86.30;97284.81;6159856;23;19954;-78
2021/12/10 10:49:41;;;;;;;;;;;;;;;4.30;86.55;97287.47;6184693;23;19953;-77
2021/12/10 10:52:22;;;;;;;;;;;;;;;4.27;86.81;97282.50;6161608;23;19908;-77
2021/12/10 10:54:48;;;;;;;;;;;;;;;4.28;86.49;97278.88;6161158;23;19983;-77
2021/12/10 10:57:15;;;;;;;;;;;;;;;4.28;86.57;97280.69;6184809;23;19916;-78
2021/12/10 10:59:41;;;;;;;;;;;;;;;4.31;86.82;97277.72;6184708;23;19912;-77
2021/12/10 11:02:08;;;;;;;;;;;;;;;4.29;86.79;97275.22;6159770;23;19909;-77
2021/12/10 11:04:40;;;;;;;;;;;;;;;4.32;86.96;97277.53;6160815;23;19955;-77
2021/12/10 11:07:12;;;;;;;;;;;;;;;4.33;86.95;97279.19;6159859;23;19969;-78
2021/12/10 11:09:42;;;;;;;;;;;;;;;4.32;87.01;97282.84;6184553;23;20007;-78
2021/12/10 11:12:08;;;;;;;;;;;;;;;4.25;86.70;97278.34;6184204;23;19909;-77
2021/12/10 11:14:37;;;;;;;;;;;;;;;4.19;87.02;97274.53;6158768;23;19905;-77
2021/12/10 11:17:07;;;;;;;;;;;;;;;4.24;87.31;97274.03;6159429;23;19909;-77
2021/12/10 11:19:33;;;;;;;;;;;;;;;4.30;87.13;97281.34;6135468;23;19908;-78
2021/12/10 11:22:01;;;;;;;;;;;;;;;4.32;87.32;97282.84;6160700;23;19914;-77
2021/12/10 11:24:34;;;;;;;;;;;;;;;4.32;87.42;97284.66;6161218;23;19905;-77
2021/12/10 11:27:03;;;;;;;;;;;;;;;4.27;87.42;97284.31;6161250;23;20332;-77
2021/12/10 11:29:35;;;;;;;;;;;;;;;4.30;87.75;97282.19;6135083;23;19919;-76
2021/12/10 11:32:01;;;;;;;;;;;;;;;4.32;87.67;97280.19;6161155;23;19909;-77
2021/12/10 11:34:43;;;;;;;;;;;;;;;4.38;87.59;97284.00;6159394;23;19904;-78
2021/12/10 11:37:09;;;;;;;;;;;;;;;4.34;87.70;97285.31;6135064;23;19942;-79
2021/12/10 11:39:45;;;;;;;;;;;;;;;4.34;87.64;97283.50;6134514;23;19916;-78
2021/12/10 11:42:49;;;;;;;;;;;;;;;4.40;87.82;97287.28;6159427;23;20011;-77
2021/12/10 11:45:31;;;;;;;;;;;;;;;4.39;87.80;97290.94;6102333;23;19908;-77
2021/12/10 11:48:06;;;;;;;;;;;;;;;4.39;87.95;97289.13;6133107;23;19908;-76
2021/12/10 11:50:31;;;;;;;;;;;;;;;4.38;88.17;97300.69;6135013;23;19908;-77
2021/12/10 11:53:07;;;;;;;;;;;;;;;4.37;87.96;97300.84;6159583;23;20104;-78
2021/12/10 11:55:35;;;;;;;;;;;;;;;4.36;88.14;97294.75;6159067;23;19913;-79
2021/12/10 11:58:00;;;;;;;;;;;;;;;4.38;88.02;97302.50;6133419;23;20285;-77
2021/12/10 12:00:27;;;;;;;;;;;;;;;4.41;87.98;97304.81;6154948;23;19932;-77
2021/12/10 12:02:54;;;;;;;;;;;;;;;4.45;88.30;97313.25;6153809;23;19943;-77
2021/12/10 12:05:21;;;;;;;;;;;;;;;4.39;88.04;97304.16;6134385;23;19915;-76
2021/12/10 12:07:46;;;;;;;;;;;;;;;4.44;88.36;97304.50;6134495;23;19908;-77
2021/12/10 12:10:21;;;;;;;;;;;;;;;4.46;88.51;97312.25;6159621;23;19916;-78
2021/12/10 12:12:58;;;;;;;;;;;;;;;4.45;88.46;97315.91;6158975;23;19904;-76
2021/12/10 12:15:30;;;;;;;;;;;;;;;4.47;88.49;97312.09;6139395;23;19928;-78
2021/12/10 12:18:02;;;;;;;;;;;;;;;4.49;88.39;97307.47;6183370;23;19924;-77
2021/12/10 12:20:43;;;;;;;;;;;;;;;4.50;88.31;97305.66;6158422;23;19912;-77